createdAt,value
2022-10-08T00:00:15.808Z,88.65
2022-10-08T00:01:15.779Z,88.76
2022-10-08T00:02:15.823Z,88.76
2022-10-08T00:03:15.799Z,88.96
2022-10-08T00:04:15.782Z,88.96
2022-10-08T00:05:15.736Z,88.96
2022-10-08T00:06:15.739Z,88.85
2022-10-08T00:07:15.727Z,88.85
2022-10-08T00:08:15.715Z,88.96
2022-10-08T00:09:15.720Z,88.96
2022-10-08T00:10:15.699Z,89.11
2022-10-08T00:11:15.668Z,89.06
2022-10-08T00:12:15.911Z,88.96
2022-10-08T00:13:15.648Z,88.96
2022-10-08T00:14:15.679Z,88.85
2022-10-08T00:15:15.618Z,88.85
2022-10-08T00:16:15.668Z,88.96
2022-10-08T00:17:15.599Z,88.96
2022-10-08T00:18:15.599Z,89.00
2022-10-08T00:19:15.580Z,89.11
2022-10-08T00:20:15.587Z,89.11
2022-10-08T00:21:15.567Z,89.20
2022-10-08T00:22:15.562Z,89.31
2022-10-08T00:23:15.539Z,89.20
2022-10-08T00:24:15.526Z,89.31
2022-10-08T00:25:15.500Z,89.31
2022-10-08T00:26:15.527Z,89.20
2022-10-08T00:27:15.500Z,89.11
2022-10-08T00:28:15.515Z,89.06
2022-10-08T00:29:15.471Z,88.96
2022-10-08T00:30:15.699Z,88.96
2022-10-08T00:31:15.500Z,89.11
2022-10-08T00:32:16.127Z,89.11
2022-10-08T00:33:15.439Z,89.11
2022-10-08T00:34:15.447Z,89.20
2022-10-08T00:35:15.427Z,89.20
2022-10-08T00:36:15.399Z,89.20
2022-10-08T00:37:15.389Z,89.20
2022-10-08T00:38:15.387Z,89.31
2022-10-08T00:39:15.360Z,89.31
2022-10-08T00:40:15.361Z,89.41
2022-10-08T00:41:15.340Z,89.41
2022-10-08T00:42:15.367Z,89.41
2022-10-08T00:43:15.311Z,89.51
2022-10-08T00:44:15.322Z,89.41
2022-10-08T00:45:15.431Z,89.41
2022-10-08T00:46:15.662Z,89.41
2022-10-08T00:47:15.268Z,89.41
2022-10-08T00:48:15.263Z,89.51
2022-10-08T00:49:15.252Z,89.51
2022-10-08T00:50:15.241Z,89.61
2022-10-08T00:51:15.432Z,89.61
2022-10-08T00:52:15.543Z,89.76
2022-10-08T00:53:15.191Z,89.86
2022-10-08T00:54:15.191Z,89.86
2022-10-08T00:55:15.196Z,89.97
2022-10-08T00:56:15.181Z,89.97
2022-10-08T00:57:15.160Z,89.97
2022-10-08T00:58:15.159Z,89.97
2022-10-08T00:59:15.119Z,89.86
2022-10-08T01:00:15.131Z,89.86
2022-10-08T01:01:15.183Z,89.86
2022-10-08T01:02:15.206Z,89.97
2022-10-08T01:03:15.083Z,89.97
2022-10-08T01:04:15.076Z,90.06
2022-10-08T01:05:15.084Z,90.06
2022-10-08T01:06:15.062Z,90.17
2022-10-08T01:07:15.116Z,90.17
2022-10-08T01:08:15.124Z,90.17
2022-10-08T01:09:18.839Z,90.27
2022-10-08T01:10:15.192Z,90.37
2022-10-08T01:11:15.492Z,90.37
2022-10-08T01:12:15.252Z,90.37
2022-10-08T01:13:15.132Z,90.47
2022-10-08T01:14:14.993Z,90.58
2022-10-08T01:15:14.945Z,90.58
2022-10-08T01:16:15.007Z,90.58
2022-10-08T01:17:14.924Z,90.58
2022-10-08T01:18:14.952Z,90.58
2022-10-08T01:19:14.903Z,90.68
2022-10-08T01:20:14.896Z,90.68
2022-10-08T01:21:14.876Z,90.68
2022-10-08T01:22:14.884Z,90.68
2022-10-08T01:23:14.853Z,90.78
2022-10-08T01:24:14.864Z,90.92
2022-10-08T01:25:14.836Z,90.92
2022-10-08T01:26:14.832Z,90.82
2022-10-08T01:27:14.812Z,90.82
2022-10-08T01:28:14.877Z,90.92
2022-10-08T01:29:14.790Z,91.03
2022-10-08T01:30:14.812Z,90.92
2022-10-08T01:31:14.877Z,90.92
2022-10-08T01:32:14.798Z,90.82
2022-10-08T01:33:14.736Z,90.82
2022-10-08T01:34:14.752Z,90.82
2022-10-08T01:35:14.724Z,90.78
2022-10-08T01:36:14.765Z,90.82
2022-10-08T01:37:14.692Z,90.82
2022-10-08T01:38:14.696Z,90.88
2022-10-08T01:39:14.706Z,90.82
2022-10-08T01:40:14.685Z,90.82
2022-10-08T01:41:14.664Z,90.82
2022-10-08T01:42:14.664Z,90.82
2022-10-08T01:43:14.624Z,90.82
2022-10-08T01:44:14.624Z,90.92
2022-10-08T01:45:14.618Z,91.03
2022-10-08T01:46:14.637Z,90.92
2022-10-08T01:47:14.615Z,91.03
2022-10-08T01:48:14.610Z,91.13
2022-10-08T01:49:14.559Z,91.13
2022-10-08T01:50:14.582Z,91.13
2022-10-08T01:51:14.557Z,91.13
2022-10-08T01:52:14.644Z,91.13
2022-10-08T01:53:14.528Z,91.13
2022-10-08T01:54:14.537Z,91.13
2022-10-08T01:55:14.534Z,91.03
2022-10-08T01:56:14.485Z,91.03
2022-10-08T01:57:14.464Z,91.03
2022-10-08T01:58:14.476Z,91.13
2022-10-08T01:59:14.457Z,91.13
2022-10-08T02:00:14.445Z,91.03
2022-10-08T02:01:14.506Z,91.03
2022-10-08T02:02:14.457Z,91.13
2022-10-08T02:03:14.397Z,91.13
2022-10-08T02:04:14.396Z,91.13
2022-10-08T02:05:14.438Z,91.23
2022-10-08T02:06:14.397Z,91.13
2022-10-08T02:07:14.365Z,91.13
2022-10-08T02:08:14.349Z,91.13
2022-10-08T02:09:14.419Z,91.13
2022-10-08T02:10:14.348Z,90.99
2022-10-08T02:11:14.369Z,90.88
2022-10-08T02:12:14.530Z,90.78
2022-10-08T02:13:14.297Z,90.88
2022-10-08T02:14:14.285Z,90.88
2022-10-08T02:15:14.291Z,90.88
2022-10-08T02:16:14.288Z,90.88
2022-10-08T02:17:14.282Z,90.99
2022-10-08T02:18:14.246Z,90.99
2022-10-08T02:19:14.230Z,90.99
2022-10-08T02:20:14.217Z,90.99
2022-10-08T02:21:14.209Z,90.99
2022-10-08T02:22:14.257Z,91.09
2022-10-08T02:23:14.185Z,91.09
2022-10-08T02:24:14.181Z,91.19
2022-10-08T02:25:14.177Z,91.19
2022-10-08T02:26:14.157Z,91.19
2022-10-08T02:27:14.149Z,91.19
2022-10-08T02:28:14.175Z,91.09
2022-10-08T02:29:14.118Z,90.88
2022-10-08T02:30:14.107Z,90.88
2022-10-08T02:31:14.110Z,90.78
2022-10-08T02:32:14.111Z,90.78
2022-10-08T02:33:14.291Z,90.68
2022-10-08T02:34:14.057Z,90.68
2022-10-08T02:35:14.037Z,90.58
2022-10-08T02:36:14.066Z,90.53
2022-10-08T02:37:14.011Z,90.43
2022-10-08T02:38:14.022Z,90.33
2022-10-08T02:39:13.994Z,90.23
2022-10-08T02:40:13.997Z,90.23
2022-10-08T02:41:14.542Z,90.12
2022-10-08T02:42:13.969Z,89.92
2022-10-08T02:43:13.965Z,89.82
2022-10-08T02:44:13.943Z,89.82
2022-10-08T02:45:13.949Z,89.82
2022-10-08T02:46:13.980Z,89.82
2022-10-08T02:47:13.918Z,89.82
2022-10-08T02:48:13.910Z,89.82
2022-10-08T02:49:13.877Z,89.82
2022-10-08T02:50:13.863Z,89.82
2022-10-08T02:51:13.869Z,89.82
2022-10-08T02:52:13.869Z,89.72
2022-10-08T02:53:13.837Z,89.61
2022-10-08T02:54:13.842Z,89.82
2022-10-08T02:55:13.862Z,89.72
2022-10-08T02:56:14.063Z,89.72
2022-10-08T02:57:13.941Z,89.58
2022-10-08T02:58:13.949Z,89.58
2022-10-08T02:59:13.827Z,89.58
2022-10-08T03:00:13.890Z,89.58
2022-10-08T03:01:13.809Z,89.67
2022-10-08T03:02:13.835Z,89.67
2022-10-08T03:03:13.749Z,89.67
2022-10-08T03:04:13.729Z,89.58
2022-10-08T03:05:13.701Z,89.67
2022-10-08T03:06:13.711Z,89.58
2022-10-08T03:07:13.689Z,89.47
2022-10-08T03:08:13.670Z,89.58
2022-10-08T03:09:13.674Z,89.17
2022-10-08T03:10:13.654Z,89.17
2022-10-08T03:11:13.654Z,89.06
2022-10-08T03:12:13.630Z,89.17
2022-10-08T03:13:13.611Z,89.26
2022-10-08T03:14:13.617Z,89.26
2022-10-08T03:15:13.614Z,89.47
2022-10-08T03:16:13.623Z,89.58
2022-10-08T03:17:13.574Z,90.29
2022-10-08T03:18:13.554Z,90.90
2022-10-08T03:19:13.562Z,90.80
2022-10-08T03:20:13.552Z,91.20
2022-10-08T03:21:13.782Z,91.41
2022-10-08T03:22:13.522Z,91.41
2022-10-08T03:23:13.502Z,91.52
2022-10-08T03:24:13.510Z,91.72
2022-10-08T03:25:13.511Z,91.72
2022-10-08T03:26:13.496Z,91.72
2022-10-08T03:27:13.451Z,91.82
2022-10-08T03:28:13.517Z,92.13
2022-10-08T03:29:13.450Z,92.13
2022-10-08T03:30:13.424Z,91.92
2022-10-08T03:31:13.525Z,91.92
2022-10-08T03:32:13.402Z,92.02
2022-10-08T03:33:13.390Z,91.52
2022-10-08T03:34:13.382Z,91.72
2022-10-08T03:35:13.362Z,91.41
2022-10-08T03:36:13.362Z,91.31
2022-10-08T03:37:13.375Z,91.61
2022-10-08T03:38:13.334Z,91.52
2022-10-08T03:39:13.322Z,91.61
2022-10-08T03:40:13.324Z,91.82
2022-10-08T03:41:13.323Z,91.61
2022-10-08T03:42:13.296Z,91.92
2022-10-08T03:43:13.287Z,91.92
2022-10-08T03:44:13.270Z,91.82
2022-10-08T03:45:13.257Z,92.02
2022-10-08T03:46:13.332Z,92.23
2022-10-08T03:47:13.225Z,92.13
2022-10-08T03:48:13.226Z,92.02
2022-10-08T03:49:13.322Z,92.13
2022-10-08T03:50:13.195Z,92.23
2022-10-08T03:51:13.186Z,92.33
2022-10-08T03:52:13.181Z,92.33
2022-10-08T03:53:13.209Z,92.33
2022-10-08T03:54:13.155Z,92.43
2022-10-08T03:55:13.155Z,92.43
2022-10-08T03:56:13.139Z,92.64
2022-10-08T03:57:13.119Z,92.64
2022-10-08T03:58:13.130Z,92.84
2022-10-08T03:59:13.102Z,92.94
2022-10-08T04:00:13.088Z,93.05
2022-10-08T04:01:13.179Z,93.25
2022-10-08T04:02:13.142Z,93.66
2022-10-08T04:03:13.055Z,94.07
2022-10-08T04:04:13.064Z,94.68
2022-10-08T04:05:13.044Z,95.09
2022-10-08T04:06:13.018Z,95.90
2022-10-08T04:07:13.007Z,96.83
2022-10-08T04:08:12.988Z,97.44
2022-10-08T04:09:13.015Z,98.25
2022-10-08T04:10:13.035Z,98.77
2022-10-08T04:11:12.961Z,99.18
2022-10-08T04:12:12.950Z,99.84
2022-10-08T04:13:12.935Z,99.99
2022-10-08T04:14:12.920Z,99.99
2022-10-08T04:15:12.939Z,99.99
2022-10-08T04:16:12.984Z,99.99
2022-10-08T04:17:12.899Z,99.99
2022-10-08T04:18:12.868Z,99.99
2022-10-08T04:19:12.855Z,99.99
2022-10-08T04:20:12.885Z,99.99
2022-10-08T04:21:12.876Z,99.99
2022-10-08T04:22:12.827Z,99.99
2022-10-08T04:23:12.835Z,99.99
2022-10-08T04:24:12.828Z,99.99
2022-10-08T04:25:12.812Z,99.99
2022-10-08T04:26:12.834Z,99.99
2022-10-08T04:27:12.788Z,99.99
2022-10-08T04:28:12.798Z,99.99
2022-10-08T04:29:12.779Z,99.99
2022-10-08T04:30:12.735Z,99.99
2022-10-08T04:31:12.839Z,99.99
2022-10-08T04:32:12.725Z,99.99
2022-10-08T04:33:12.743Z,99.99
2022-10-08T04:34:12.703Z,99.99
2022-10-08T04:35:12.689Z,99.99
2022-10-08T04:36:12.704Z,99.99
2022-10-08T04:37:12.681Z,99.99
2022-10-08T04:38:12.712Z,99.99
2022-10-08T04:39:12.682Z,99.99
2022-10-08T04:40:12.628Z,99.99
2022-10-08T04:41:12.634Z,99.99
2022-10-08T04:42:12.615Z,99.99
2022-10-08T04:43:12.611Z,99.99
2022-10-08T04:44:12.581Z,99.99
2022-10-08T04:45:12.581Z,99.99
2022-10-08T04:46:12.660Z,99.99
2022-10-08T04:47:12.564Z,99.99
2022-10-08T04:48:12.527Z,99.99
2022-10-08T04:49:12.528Z,99.99
2022-10-08T04:50:12.553Z,99.99
2022-10-08T04:51:12.548Z,99.99
2022-10-08T04:52:12.513Z,99.99
2022-10-08T04:53:12.500Z,99.99
2022-10-08T04:54:12.482Z,99.99
2022-10-08T04:55:12.469Z,99.99
2022-10-08T04:56:12.448Z,99.99
2022-10-08T04:57:12.459Z,99.99
2022-10-08T04:58:12.432Z,99.99
2022-10-08T04:59:12.421Z,99.99
2022-10-08T05:00:18.133Z,99.99
2022-10-08T05:01:13.506Z,99.99
2022-10-08T05:02:12.369Z,99.99
2022-10-08T05:03:12.418Z,99.99
2022-10-08T05:04:12.352Z,99.99
2022-10-08T05:05:12.364Z,99.99
2022-10-08T05:06:12.344Z,99.99
2022-10-08T05:07:12.340Z,99.99
2022-10-08T05:08:12.308Z,99.99
2022-10-08T05:09:12.302Z,99.99
2022-10-08T05:10:12.501Z,99.99
2022-10-08T05:11:12.280Z,99.99
2022-10-08T05:12:12.276Z,99.99
2022-10-08T05:13:12.261Z,99.99
2022-10-08T05:14:12.242Z,99.99
2022-10-08T05:15:12.260Z,99.99
2022-10-08T05:16:12.346Z,99.99
2022-10-08T05:17:12.233Z,99.99
2022-10-08T05:18:12.201Z,99.99
2022-10-08T05:19:12.192Z,99.99
2022-10-08T05:20:12.200Z,99.99
2022-10-08T05:21:12.173Z,99.99
2022-10-08T05:22:12.153Z,99.99
2022-10-08T05:23:12.181Z,99.99
2022-10-08T05:24:12.133Z,99.99
2022-10-08T05:25:12.185Z,99.99
2022-10-08T05:26:12.124Z,99.99
2022-10-08T05:27:12.104Z,99.99
2022-10-08T05:28:12.127Z,99.99
2022-10-08T05:29:12.114Z,99.99
2022-10-08T05:30:12.073Z,99.99
2022-10-08T05:31:12.122Z,99.99
2022-10-08T05:32:12.072Z,99.99
2022-10-08T05:33:12.054Z,99.99
2022-10-08T05:34:12.053Z,99.99
2022-10-08T05:35:12.013Z,99.99
2022-10-08T05:36:12.001Z,99.99
2022-10-08T05:37:11.993Z,99.99
2022-10-08T05:38:11.973Z,99.99
2022-10-08T05:39:11.977Z,99.99
2022-10-08T05:40:11.965Z,99.99
2022-10-08T05:41:11.947Z,99.99
2022-10-08T05:42:11.995Z,99.99
2022-10-08T05:43:11.925Z,99.99
2022-10-08T05:44:11.913Z,99.99
2022-10-08T05:45:11.912Z,99.99
2022-10-08T05:46:11.930Z,99.99
2022-10-08T05:47:11.885Z,99.99
2022-10-08T05:48:11.845Z,99.99
2022-10-08T05:49:11.853Z,99.99
2022-10-08T05:50:11.925Z,99.99
2022-10-08T05:51:11.862Z,99.99
2022-10-08T05:52:11.818Z,99.99
2022-10-08T05:53:11.794Z,99.99
2022-10-08T05:54:11.825Z,99.99
2022-10-08T05:55:11.813Z,99.99
2022-10-08T05:56:11.766Z,99.99
2022-10-08T05:57:11.765Z,99.99
2022-10-08T05:58:11.745Z,99.99
2022-10-08T05:59:12.201Z,99.99
2022-10-08T06:00:11.837Z,99.99
2022-10-08T06:01:11.726Z,99.99
2022-10-08T06:02:11.693Z,99.99
2022-10-08T06:03:11.931Z,99.99
2022-10-08T06:04:11.684Z,99.99
2022-10-08T06:05:11.758Z,99.99
2022-10-08T06:06:11.658Z,99.99
2022-10-08T06:07:11.648Z,99.99
2022-10-08T06:08:11.634Z,99.99
2022-10-08T06:09:11.645Z,99.99
2022-10-08T06:10:12.253Z,99.99
2022-10-08T06:11:11.630Z,99.99
2022-10-08T06:12:11.593Z,99.99
2022-10-08T06:13:11.606Z,99.99
2022-10-08T06:14:11.566Z,99.99
2022-10-08T06:15:11.568Z,99.99
2022-10-08T06:16:11.807Z,99.99
2022-10-08T06:17:11.534Z,99.99
2022-10-08T06:18:11.517Z,99.99
2022-10-08T06:19:11.527Z,99.99
2022-10-08T06:20:11.506Z,99.99
2022-10-08T06:21:11.528Z,99.99
2022-10-08T06:22:11.478Z,99.99
2022-10-08T06:23:11.471Z,99.99
2022-10-08T06:24:11.447Z,99.99
2022-10-08T06:25:11.451Z,99.99
2022-10-08T06:26:11.446Z,99.99
2022-10-08T06:27:11.460Z,99.99
2022-10-08T06:28:11.416Z,99.99
2022-10-08T06:29:11.398Z,99.99
2022-10-08T06:30:11.486Z,99.99
2022-10-08T06:31:11.478Z,99.99
2022-10-08T06:32:11.358Z,99.99
2022-10-08T06:33:11.379Z,99.99
2022-10-08T06:34:11.346Z,99.99
2022-10-08T06:35:11.348Z,99.99
2022-10-08T06:36:11.322Z,99.99
2022-10-08T06:37:11.346Z,99.99
2022-10-08T06:38:11.306Z,99.99
2022-10-08T06:39:11.298Z,99.99
2022-10-08T06:40:11.278Z,99.99
2022-10-08T06:41:11.398Z,99.99
2022-10-08T06:42:11.272Z,99.99
2022-10-08T06:43:11.262Z,99.99
2022-10-08T06:44:11.230Z,99.99
2022-10-08T06:45:11.487Z,99.99
2022-10-08T06:46:11.223Z,99.99
2022-10-08T06:47:11.304Z,99.99
2022-10-08T06:48:11.191Z,99.99
2022-10-08T06:49:11.181Z,99.99
2022-10-08T06:50:11.338Z,99.99
2022-10-08T06:51:11.167Z,99.99
2022-10-08T06:52:11.167Z,99.99
2022-10-08T06:53:11.190Z,99.99
2022-10-08T06:54:11.267Z,99.99
2022-10-08T06:55:11.158Z,99.99
2022-10-08T06:56:11.299Z,99.99
2022-10-08T06:57:11.218Z,99.99
2022-10-08T06:58:11.260Z,99.99
2022-10-08T06:59:11.439Z,99.99
2022-10-08T07:00:11.218Z,99.99
2022-10-08T07:01:11.318Z,99.99
2022-10-08T07:02:11.371Z,99.99
2022-10-08T07:03:11.322Z,99.99
2022-10-08T07:04:11.310Z,99.99
2022-10-08T07:05:11.325Z,99.99
2022-10-08T07:06:11.367Z,99.99
2022-10-08T07:07:11.299Z,99.99
2022-10-08T07:08:11.478Z,99.99
2022-10-08T07:09:11.299Z,99.99
2022-10-08T07:10:11.266Z,99.99
2022-10-08T07:11:11.381Z,99.99
2022-10-08T07:12:11.347Z,99.99
2022-10-08T07:13:11.401Z,99.99
2022-10-08T07:14:11.370Z,99.99
2022-10-08T07:15:11.231Z,99.99
2022-10-08T07:16:11.021Z,99.99
2022-10-08T07:17:10.864Z,99.99
2022-10-08T07:18:10.852Z,99.99
2022-10-08T07:19:10.858Z,99.99
2022-10-08T07:20:10.810Z,99.99
2022-10-08T07:21:10.811Z,99.99
2022-10-08T07:22:10.803Z,99.99
2022-10-08T07:23:10.799Z,99.99
2022-10-08T07:24:10.784Z,99.99
2022-10-08T07:25:10.790Z,99.99
2022-10-08T07:26:10.751Z,99.99
2022-10-08T07:27:10.779Z,99.99
2022-10-08T07:28:10.774Z,99.99
2022-10-08T07:29:10.739Z,99.99
2022-10-08T07:30:10.711Z,99.99
2022-10-08T07:31:10.756Z,99.99
2022-10-08T07:32:10.747Z,99.99
2022-10-08T07:33:10.771Z,99.99
2022-10-08T07:34:10.808Z,99.99
2022-10-08T07:35:10.883Z,99.99
2022-10-08T07:36:10.844Z,99.99
2022-10-08T07:37:10.851Z,99.99
2022-10-08T07:38:10.865Z,99.99
2022-10-08T07:39:10.903Z,99.99
2022-10-08T07:40:10.595Z,99.99
2022-10-08T07:41:10.643Z,99.99
2022-10-08T07:42:10.563Z,99.99
2022-10-08T07:43:10.603Z,99.99
2022-10-08T07:44:10.561Z,99.99
2022-10-08T07:45:10.567Z,99.99
2022-10-08T07:46:10.576Z,99.99
2022-10-08T07:47:10.555Z,99.99
2022-10-08T07:48:10.505Z,99.99
2022-10-08T07:49:10.511Z,99.99
2022-10-08T07:50:10.505Z,99.99
2022-10-08T07:51:10.475Z,99.99
2022-10-08T07:52:10.495Z,99.99
2022-10-08T07:53:10.471Z,99.99
2022-10-08T07:54:10.432Z,99.99
2022-10-08T07:55:10.437Z,99.99
2022-10-08T07:56:10.417Z,99.99
2022-10-08T07:57:10.412Z,99.99
2022-10-08T07:58:10.413Z,99.99
2022-10-08T07:59:10.416Z,99.99
2022-10-08T08:00:10.379Z,99.99
2022-10-08T08:01:10.435Z,99.99
2022-10-08T08:02:10.401Z,99.99
2022-10-08T08:03:10.352Z,99.99
2022-10-08T08:04:10.375Z,99.99
2022-10-08T08:05:10.323Z,99.99
2022-10-08T08:06:10.333Z,99.99
2022-10-08T08:07:10.329Z,99.99
2022-10-08T08:08:10.496Z,99.99
2022-10-08T08:09:10.292Z,99.99
2022-10-08T08:10:10.443Z,99.99
2022-10-08T08:11:10.279Z,99.99
2022-10-08T08:12:10.223Z,99.99
2022-10-08T08:13:10.268Z,99.99
2022-10-08T08:14:10.228Z,99.99
2022-10-08T08:15:10.247Z,99.99
2022-10-08T08:16:10.218Z,99.99
2022-10-08T08:17:10.186Z,99.99
2022-10-08T08:18:10.164Z,99.99
2022-10-08T08:19:11.105Z,99.99
2022-10-08T08:20:10.165Z,99.99
2022-10-08T08:21:10.175Z,99.99
2022-10-08T08:22:10.123Z,99.99
2022-10-08T08:23:10.143Z,99.99
2022-10-08T08:24:10.116Z,99.99
2022-10-08T08:25:10.178Z,99.99
2022-10-08T08:26:10.113Z,99.99
2022-10-08T08:27:10.067Z,99.99
2022-10-08T08:28:10.178Z,99.99
2022-10-08T08:29:10.035Z,99.99
2022-10-08T08:30:10.037Z,99.99
2022-10-08T08:31:10.033Z,99.99
2022-10-08T08:32:10.154Z,99.99
2022-10-08T08:33:10.035Z,99.99
2022-10-08T08:34:09.987Z,99.99
2022-10-08T08:35:09.979Z,99.99
2022-10-08T08:36:09.957Z,99.99
2022-10-08T08:37:09.947Z,99.99
2022-10-08T08:38:09.948Z,99.99
2022-10-08T08:39:09.970Z,99.99
2022-10-08T08:40:09.936Z,99.99
2022-10-08T08:41:13.514Z,99.99
2022-10-08T08:42:09.920Z,99.99
2022-10-08T08:43:09.888Z,99.99
2022-10-08T08:44:09.881Z,99.99
2022-10-08T08:45:18.875Z,99.99
2022-10-08T08:46:10.967Z,99.99
2022-10-08T08:47:09.835Z,99.99
2022-10-08T08:48:09.838Z,99.99
2022-10-08T08:49:09.813Z,99.99
2022-10-08T08:50:09.849Z,99.99
2022-10-08T08:51:09.815Z,99.99
2022-10-08T08:52:09.824Z,99.99
2022-10-08T08:53:09.766Z,99.99
2022-10-08T08:54:09.777Z,99.99
2022-10-08T08:55:09.750Z,99.99
2022-10-08T08:56:09.774Z,99.91
2022-10-08T08:57:09.738Z,99.99
2022-10-08T08:58:11.109Z,99.41
2022-10-08T08:59:09.750Z,99.51
2022-10-08T09:00:09.686Z,99.20
2022-10-08T09:01:09.723Z,99.41
2022-10-08T09:02:09.678Z,99.71
2022-10-08T09:03:09.678Z,99.51
2022-10-08T09:04:09.686Z,99.30
2022-10-08T09:05:09.697Z,99.61
2022-10-08T09:06:09.652Z,99.05
2022-10-08T09:07:09.630Z,98.90
2022-10-08T09:08:09.610Z,98.39
2022-10-08T09:09:09.610Z,98.59
2022-10-08T09:10:09.602Z,98.59
2022-10-08T09:11:10.751Z,98.69
2022-10-08T09:12:09.598Z,98.08
2022-10-08T09:13:09.558Z,98.39
2022-10-08T09:14:09.538Z,98.39
2022-10-08T09:15:09.531Z,97.98
2022-10-08T09:16:09.518Z,97.47
2022-10-08T09:17:09.509Z,98.02
2022-10-08T09:18:09.490Z,97.82
2022-10-08T09:19:09.470Z,97.31
2022-10-08T09:20:09.470Z,97.62
2022-10-08T09:21:09.504Z,97.41
2022-10-08T09:22:09.494Z,97.41
2022-10-08T09:23:09.470Z,97.62
2022-10-08T09:24:09.468Z,97.52
2022-10-08T09:25:09.472Z,97.11
2022-10-08T09:26:09.534Z,97.41
2022-10-08T09:27:09.545Z,97.41
2022-10-08T09:28:09.606Z,97.52
2022-10-08T09:29:09.420Z,97.98
2022-10-08T09:30:09.602Z,97.27
2022-10-08T09:31:09.624Z,97.57
2022-10-08T09:32:09.356Z,97.27
2022-10-08T09:33:09.443Z,99.16
2022-10-08T09:34:09.336Z,97.48
2022-10-08T09:35:09.296Z,97.78
2022-10-08T09:36:09.291Z,94.84
2022-10-08T09:37:09.284Z,94.69
2022-10-08T09:38:09.423Z,94.28
2022-10-08T09:39:09.251Z,94.38
2022-10-08T09:40:09.272Z,95.46
2022-10-08T09:41:09.223Z,95.97
2022-10-08T09:42:09.261Z,93.48
2022-10-08T09:43:09.219Z,92.16
2022-10-08T09:44:09.212Z,92.32
2022-10-08T09:45:09.195Z,92.28
2022-10-08T09:46:09.261Z,91.47
2022-10-08T09:47:09.167Z,91.06
2022-10-08T09:48:09.339Z,91.16
2022-10-08T09:49:09.156Z,90.19
2022-10-08T09:50:09.136Z,90.03
2022-10-08T09:51:09.118Z,90.03
2022-10-08T09:52:11.416Z,90.27
2022-10-08T09:53:10.224Z,92.00
2022-10-08T09:54:09.115Z,91.25
2022-10-08T09:55:09.119Z,91.75
2022-10-08T09:56:09.086Z,92.12
2022-10-08T09:57:09.050Z,90.59
2022-10-08T09:58:09.327Z,89.58
2022-10-08T09:59:09.034Z,88.36
2022-10-08T10:00:09.047Z,86.88
2022-10-08T10:01:09.164Z,87.38
2022-10-08T10:02:09.023Z,87.38
2022-10-08T10:03:08.974Z,88.71
2022-10-08T10:04:09.061Z,89.31
2022-10-08T10:05:09.044Z,89.22
2022-10-08T10:06:08.976Z,88.40
2022-10-08T10:07:08.954Z,88.20
2022-10-08T10:08:08.941Z,88.20
2022-10-08T10:09:08.906Z,88.71
2022-10-08T10:10:08.927Z,87.93
2022-10-08T10:11:08.898Z,88.13
2022-10-08T10:12:08.888Z,88.44
2022-10-08T10:13:09.128Z,86.92
2022-10-08T10:14:08.879Z,86.71
2022-10-08T10:15:08.868Z,87.29
2022-10-08T10:16:08.902Z,86.77
2022-10-08T10:17:08.889Z,86.77
2022-10-08T10:18:09.226Z,86.98
2022-10-08T10:19:09.067Z,87.29
2022-10-08T10:20:08.798Z,87.49
2022-10-08T10:21:08.778Z,87.69
2022-10-08T10:22:08.806Z,88.10
2022-10-08T10:23:08.798Z,87.29
2022-10-08T10:24:08.747Z,86.37
2022-10-08T10:25:08.815Z,86.68
2022-10-08T10:26:08.726Z,85.92
2022-10-08T10:27:08.811Z,86.33
2022-10-08T10:28:08.803Z,85.72
2022-10-08T10:29:09.098Z,85.76
2022-10-08T10:30:08.885Z,86.37
2022-10-08T10:31:09.286Z,86.33
2022-10-08T10:32:08.819Z,86.94
2022-10-08T10:33:08.818Z,86.39
2022-10-08T10:34:08.818Z,86.59
2022-10-08T10:35:08.838Z,86.45
2022-10-08T10:36:08.819Z,86.86
2022-10-08T10:37:08.840Z,81.95
2022-10-08T10:38:08.894Z,81.34
2022-10-08T10:39:08.856Z,81.24
2022-10-08T10:40:08.831Z,81.71
2022-10-08T10:41:08.911Z,81.91
2022-10-08T10:42:08.932Z,81.60
2022-10-08T10:43:08.827Z,80.83
2022-10-08T10:44:08.911Z,80.53
2022-10-08T10:45:08.902Z,80.59
2022-10-08T10:46:08.962Z,80.59
2022-10-08T10:47:08.828Z,80.59
2022-10-08T10:48:08.915Z,80.19
2022-10-08T10:49:08.853Z,80.79
2022-10-08T10:50:08.756Z,79.44
2022-10-08T10:51:08.660Z,80.76
2022-10-08T10:52:08.889Z,78.93
2022-10-08T10:53:08.615Z,78.97
2022-10-08T10:54:08.872Z,79.58
2022-10-08T10:55:08.383Z,79.98
2022-10-08T10:56:08.647Z,80.90
2022-10-08T10:57:08.355Z,79.98
2022-10-08T10:58:08.352Z,79.88
2022-10-08T10:59:08.354Z,79.78
2022-10-08T11:00:08.351Z,79.17
2022-10-08T11:01:08.377Z,77.95
2022-10-08T11:02:08.475Z,77.04
2022-10-08T11:03:08.372Z,76.13
2022-10-08T11:04:08.291Z,76.33
2022-10-08T11:05:08.275Z,77.14
2022-10-08T11:06:08.272Z,76.54
2022-10-08T11:07:08.251Z,77.25
2022-10-08T11:08:08.360Z,77.21
2022-10-08T11:09:08.239Z,77.31
2022-10-08T11:10:08.228Z,77.04
2022-10-08T11:11:08.269Z,77.25
2022-10-08T11:12:08.214Z,76.13
2022-10-08T11:13:08.211Z,76.33
2022-10-08T11:14:08.187Z,74.04
2022-10-08T11:15:08.167Z,75.35
2022-10-08T11:16:08.238Z,77.08
2022-10-08T11:17:08.147Z,74.74
2022-10-08T11:18:08.136Z,74.85
2022-10-08T11:19:08.126Z,73.83
2022-10-08T11:20:08.179Z,73.57
2022-10-08T11:21:08.127Z,73.46
2022-10-08T11:22:08.139Z,74.38
2022-10-08T11:23:08.087Z,74.17
2022-10-08T11:24:08.075Z,74.88
2022-10-08T11:25:08.064Z,75.59
2022-10-08T11:26:22.365Z,75.39
2022-10-08T11:27:09.272Z,76.20
2022-10-08T11:28:08.088Z,76.00
2022-10-08T11:29:08.039Z,76.71
2022-10-08T11:30:08.012Z,75.05
2022-10-08T11:31:08.022Z,75.86
2022-10-08T11:32:07.993Z,74.54
2022-10-08T11:33:07.960Z,74.71
2022-10-08T11:34:07.969Z,73.80
2022-10-08T11:35:07.974Z,75.12
2022-10-08T11:36:07.941Z,75.69
2022-10-08T11:37:07.942Z,75.25
2022-10-08T11:38:07.911Z,73.93
2022-10-08T11:39:07.899Z,72.88
2022-10-08T11:40:07.888Z,72.68
2022-10-08T11:41:07.892Z,72.08
2022-10-08T11:42:07.867Z,70.45
2022-10-08T11:43:08.892Z,70.76
2022-10-08T11:44:07.839Z,71.06
2022-10-08T11:45:07.853Z,71.26
2022-10-08T11:46:07.871Z,71.67
2022-10-08T11:47:07.807Z,71.67
2022-10-08T11:48:09.917Z,72.48
2022-10-08T11:49:07.800Z,71.26
2022-10-08T11:50:08.011Z,68.36
2022-10-08T11:51:07.752Z,68.36
2022-10-08T11:52:07.752Z,68.60
2022-10-08T11:53:07.736Z,69.41
2022-10-08T11:54:07.743Z,70.35
2022-10-08T11:55:07.742Z,72.21
2022-10-08T11:56:07.762Z,74.07
2022-10-08T11:57:07.788Z,74.78
2022-10-08T11:58:09.001Z,75.12
2022-10-08T11:59:07.671Z,75.05
2022-10-08T12:00:08.814Z,74.65
2022-10-08T12:01:07.677Z,75.40
2022-10-08T12:02:07.701Z,74.21
2022-10-08T12:03:07.669Z,76.04
2022-10-08T12:04:07.623Z,77.91
2022-10-08T12:05:07.610Z,80.35
2022-10-08T12:06:07.654Z,82.32
2022-10-08T12:07:07.582Z,83.07
2022-10-08T12:08:07.570Z,84.19
2022-10-08T12:09:07.550Z,85.66
2022-10-08T12:10:07.577Z,86.47
2022-10-08T12:11:07.579Z,84.84
2022-10-08T12:12:07.523Z,85.55
2022-10-08T12:13:07.510Z,85.08
2022-10-08T12:14:07.658Z,85.55
2022-10-08T12:15:07.482Z,85.55
2022-10-08T12:16:07.540Z,85.41
2022-10-08T12:17:07.883Z,84.39
2022-10-08T12:18:07.497Z,85.72
2022-10-08T12:19:07.434Z,87.10
2022-10-08T12:20:07.577Z,83.95
2022-10-08T12:21:07.454Z,84.72
2022-10-08T12:22:07.414Z,84.11
2022-10-08T12:23:07.555Z,83.91
2022-10-08T12:24:07.394Z,82.99
2022-10-08T12:25:07.400Z,83.40
2022-10-08T12:26:07.419Z,81.57
2022-10-08T12:27:07.490Z,81.87
2022-10-08T12:28:07.452Z,81.33
2022-10-08T12:29:07.366Z,80.21
2022-10-08T12:30:07.330Z,80.37
2022-10-08T12:31:07.368Z,79.25
2022-10-08T12:32:07.310Z,81.35
2022-10-08T12:33:07.378Z,79.69
2022-10-08T12:34:07.302Z,79.28
2022-10-08T12:35:07.287Z,77.22
2022-10-08T12:36:07.274Z,77.52
2022-10-08T12:37:07.526Z,75.70
2022-10-08T12:38:07.250Z,76.27
2022-10-08T12:39:07.215Z,75.56
2022-10-08T12:40:07.198Z,74.54
2022-10-08T12:41:07.225Z,74.51
2022-10-08T12:42:07.165Z,75.01
2022-10-08T12:43:07.190Z,75.12
2022-10-08T12:44:07.190Z,74.77
2022-10-08T12:45:07.175Z,76.29
2022-10-08T12:46:07.368Z,75.25
2022-10-08T12:47:07.217Z,75.15
2022-10-08T12:48:07.158Z,72.81
2022-10-08T12:49:07.504Z,71.77
2022-10-08T12:50:07.159Z,72.58
2022-10-08T12:51:07.118Z,72.08
2022-10-08T12:52:07.089Z,72.28